Terminal Aerodrome Forecast
Issued by NWS Twin Cities, MN

Home | Current Version | Previous Version | Graphics & Text | Print | Product List | Glossary On
Versions: 1 2 3 4 5 6 7 8 9 10 11 12 13 14 15 16
528
FTUS43 KMPX 271725
TAFEAU
TAF
KEAU 271725Z 2718/2818 07015G25KT P6SM SCT120 BKN150
     FM280000 08015G25KT 6SM -RA BR BKN050 OVC100
     FM280400 06012KT 4SM -RA OVC030
     FM281000 06010KT 3SM -RA BR SCT015 OVC025
     FM281400 06009KT P6SM BKN040=

USA.gov is the U.S. government's official web portal to all federal, state and local government web resources and services.